Time;durP1;ratioP1;P1;durP2;ratioP2;P2;SDS_P1;SDS_P2;PMS_P1;PMS_P2;Temp;Humidity;BMP_temperature;BMP_pressure;BME280_temperature;BME280_humidity;BME280_pressure;Samples;Min_cycle;Max_cycle;Signal;HPM_P1;HPM_P2
2022/10/24 00:00:31;;;;;;;3.03;0.95;;;19.50;99.90;;;;;;5003799;28;20383;-81
2022/10/24 00:02:58;;;;;;;2.08;0.80;;;19.60;99.90;;;;;;4989041;28;20468;-82
2022/10/24 00:05:26;;;;;;;2.58;0.80;;;19.70;99.90;;;;;;4994160;28;20369;-81
2022/10/24 00:07:53;;;;;;;1.67;0.90;;;19.70;99.90;;;;;;4993469;28;20947;-81
2022/10/24 00:10:20;;;;;;;1.75;0.82;;;19.80;99.90;;;;;;5004190;28;20938;-80
2022/10/24 00:12:47;;;;;;;1.58;0.82;;;19.80;99.90;;;;;;5010434;28;20415;-80
2022/10/24 00:15:15;;;;;;;1.67;0.60;;;19.80;99.90;;;;;;5004827;28;20473;-81
2022/10/24 00:17:42;;;;;;;1.88;0.63;;;19.70;99.90;;;;;;4994239;28;20436;-79
2022/10/24 00:20:10;;;;;;;1.88;0.55;;;19.50;99.90;;;;;;4997093;28;20393;-80
2022/10/24 00:22:37;;;;;;;3.13;0.90;;;19.50;99.90;;;;;;4996720;28;20787;-81
2022/10/24 00:25:05;;;;;;;1.98;0.80;;;19.50;99.90;;;;;;5001499;28;20487;-80
2022/10/24 00:27:35;;;;;;;2.45;0.63;;;19.50;99.90;;;;;;4999724;28;20391;-80
2022/10/24 00:30:04;;;;;;;2.00;0.60;;;19.50;99.90;;;;;;5000237;28;20896;-81
2022/10/24 00:32:31;;;;;;;2.13;0.70;;;19.50;99.90;;;;;;5005765;28;20867;-80
2022/10/24 00:34:58;;;;;;;1.65;0.50;;;19.60;99.90;;;;;;4996022;28;20396;-80
2022/10/24 00:37:25;;;;;;;2.00;0.60;;;19.60;99.90;;;;;;4995574;28;20974;-81
2022/10/24 00:39:52;;;;;;;2.35;0.90;;;19.70;99.90;;;;;;5004549;28;20397;-81
2022/10/24 00:42:19;;;;;;;0.90;0.50;;;19.70;99.90;;;;;;5003171;28;20412;-80
2022/10/24 00:44:48;;;;;;;0.60;0.33;;;19.70;99.90;;;;;;4993591;28;20389;-80
2022/10/24 00:47:18;;;;;;;1.55;0.52;;;19.80;99.90;;;;;;4995940;28;20403;-81
2022/10/24 00:49:50;;;;;;;0.98;0.45;;;19.80;99.90;;;;;;5003682;28;20527;-80
2022/10/24 00:52:25;;;;;;;1.27;0.40;;;19.80;99.90;;;;;;5001574;28;20530;-80
2022/10/24 00:54:54;;;;;;;1.50;0.50;;;19.80;99.90;;;;;;5000529;28;20745;-79
2022/10/24 00:57:45;;;;;;;1.33;0.60;;;19.80;99.90;;;;;;4993526;28;20412;-80
2022/10/24 01:00:21;;;;;;;2.22;1.48;;;19.80;99.90;;;;;;4993676;28;20485;-80
2022/10/24 01:02:48;;;;;;;3.63;3.20;;;19.90;99.90;;;;;;4994369;28;20389;-81
2022/10/24 01:05:17;;;;;;;4.25;2.78;;;19.80;99.90;;;;;;4993657;28;20396;-81
2022/10/24 01:08:02;;;;;;;2.20;1.50;;;19.70;99.90;;;;;;4999034;28;20468;-80
2022/10/24 01:11:16;;;;;;;1.50;1.00;;;19.80;99.90;;;;;;4993104;28;20389;-79
2022/10/24 01:13:52;;;;;;;1.42;0.50;;;19.90;99.90;;;;;;4943580;28;20447;-80
2022/10/24 01:16:43;;;;;;;2.15;0.90;;;19.90;99.90;;;;;;4948365;28;20426;-81
2022/10/24 01:19:41;;;;;;;1.07;0.60;;;19.80;99.90;;;;;;4949833;28;20514;-79
2022/10/24 01:22:53;;;;;;;0.52;0.30;;;19.70;99.90;;;;;;4941273;28;20391;-80
2022/10/24 01:25:41;;;;;;;0.60;0.40;;;19.70;99.90;;;;;;4857501;29;20956;-80
2022/10/24 01:28:21;;;;;;;0.80;0.40;;;19.50;99.90;;;;;;4858038;29;20404;-80
2022/10/24 01:31:00;;;;;;;1.50;0.43;;;19.50;99.90;;;;;;4857380;29;20782;-80
2022/10/24 01:33:34;;;;;;;0.60;0.40;;;19.60;99.90;;;;;;4857261;29;20462;-80
2022/10/24 01:36:29;;;;;;;1.40;0.30;;;19.60;99.90;;;;;;4857177;29;20505;-78
2022/10/24 01:39:01;;;;;;;0.98;0.40;;;19.60;99.90;;;;;;4857624;29;21437;-79
2022/10/24 01:41:32;;;;;;;4.20;0.40;;;19.70;99.90;;;;;;4857540;29;20420;-80
2022/10/24 01:44:24;;;;;;;1.30;0.57;;;19.60;99.90;;;;;;4881676;29;20395;-80
2022/10/24 01:46:56;;;;;;;1.45;0.60;;;19.90;99.90;;;;;;4880325;29;20724;-78
2022/10/24 01:49:33;;;;;;;2.93;2.73;;;19.90;99.90;;;;;;4894141;29;20385;-80
2022/10/24 01:52:05;;;;;;;3.00;2.00;;;19.80;99.90;;;;;;4899777;29;20422;-80
2022/10/24 01:54:33;;;;;;;3.00;1.20;;;19.70;99.90;;;;;;4895104;29;20386;-80
2022/10/24 01:57:01;;;;;;;2.55;1.30;;;19.60;99.90;;;;;;4979644;28;20389;-81
2022/10/24 01:59:27;;;;;;;1.27;0.80;;;19.60;99.90;;;;;;4991870;28;20380;-80
2022/10/24 02:02:07;;;;;;;2.30;0.80;;;19.50;99.90;;;;;;4996286;28;20472;-79
2022/10/24 02:04:38;;;;;;;3.47;1.00;;;19.50;99.90;;;;;;4995700;28;20737;-79
2022/10/24 02:07:09;;;;;;;1.02;0.80;;;19.60;99.90;;;;;;4992573;28;20400;-81
2022/10/24 02:09:39;;;;;;;3.72;1.40;;;19.80;99.90;;;;;;4992356;28;20369;-80
2022/10/24 02:12:10;;;;;;;1.50;0.60;;;20.10;99.90;;;;;;4990650;28;20488;-80
2022/10/24 02:14:42;;;;;;;1.75;0.70;;;20.20;99.90;;;;;;4992404;28;20389;-80
2022/10/24 02:17:10;;;;;;;0.77;0.28;;;20.30;99.90;;;;;;4991521;28;20416;-80
2022/10/24 02:19:37;;;;;;;1.48;0.10;;;20.60;99.90;;;;;;4997222;28;20394;-81
2022/10/24 02:22:28;;;;;;;0.50;0.20;;;20.60;99.90;;;;;;5004745;28;20399;-81
2022/10/24 02:25:16;;;;;;;0.30;0.10;;;20.50;99.90;;;;;;5002164;28;20806;-81
2022/10/24 02:28:17;;;;;;;0.15;0.15;;;20.40;99.90;;;;;;4980922;28;20376;-80
2022/10/24 02:30:51;;;;;;;0.10;0.10;;;20.50;99.90;;;;;;4990469;28;20827;-81
2022/10/24 02:33:19;;;;;;;1.40;0.20;;;20.20;99.90;;;;;;4993353;28;20414;-81
2022/10/24 02:35:47;;;;;;;0.90;0.20;;;20.20;99.90;;;;;;5004693;28;20390;-81
2022/10/24 02:38:28;;;;;;;0.40;0.20;;;20.00;99.90;;;;;;5000215;28;20903;-81
2022/10/24 02:40:57;;;;;;;1.00;0.20;;;20.00;99.90;;;;;;4969847;28;20406;-81
2022/10/24 02:43:26;;;;;;;0.57;0.17;;;20.00;99.90;;;;;;4970010;28;20393;-81
2022/10/24 02:45:57;;;;;;;0.50;0.20;;;20.00;99.90;;;;;;4974110;28;20409;-81
2022/10/24 02:48:29;;;;;;;0.55;0.28;;;20.00;99.90;;;;;;4963124;28;20382;-82
2022/10/24 02:50:57;;;;;;;0.70;0.20;;;20.20;99.90;;;;;;4965963;28;20402;-81
2022/10/24 02:53:28;;;;;;;0.30;0.20;;;20.10;99.90;;;;;;4970783;28;20406;-82
2022/10/24 02:55:55;;;;;;;0.55;0.20;;;20.20;99.90;;;;;;4974497;28;20441;-81
2022/10/24 02:58:23;;;;;;;0.30;0.20;;;20.30;99.90;;;;;;4974285;28;20402;-82
2022/10/24 03:00:50;;;;;;;1.88;0.30;;;20.30;99.90;;;;;;4979661;28;20953;-80
2022/10/24 03:03:17;;;;;;;0.20;0.20;;;20.40;99.90;;;;;;4987183;28;20389;-82
2022/10/24 03:05:44;;;;;;;0.30;0.20;;;20.40;99.90;;;;;;4986948;28;20392;-78
2022/10/24 03:08:12;;;;;;;0.17;0.13;;;20.20;99.90;;;;;;4971070;28;20394;-81
2022/10/24 03:10:40;;;;;;;1.67;0.20;;;20.10;99.90;;;;;;4972001;28;20382;-80
2022/10/24 03:13:13;;;;;;;0.20;0.20;;;20.00;99.90;;;;;;4992121;28;20511;-80
2022/10/24 03:15:40;;;;;;;0.20;0.20;;;20.10;99.90;;;;;;4991340;28;20458;-82
2022/10/24 03:18:07;;;;;;;0.30;0.20;;;20.10;99.90;;;;;;5004362;28;20429;-81
2022/10/24 03:20:34;;;;;;;0.20;0.20;;;20.20;99.90;;;;;;4991489;28;20381;-81
2022/10/24 03:23:01;;;;;;;0.50;0.20;;;20.20;99.90;;;;;;4991486;28;20392;-80
2022/10/24 03:25:33;;;;;;;0.15;0.10;;;20.20;99.90;;;;;;4991032;28;20487;-81
2022/10/24 03:28:00;;;;;;;0.20;0.10;;;20.10;99.90;;;;;;4991713;28;20464;-81
2022/10/24 03:30:27;;;;;;;0.50;0.17;;;20.30;99.90;;;;;;4991660;28;20400;-81
2022/10/24 03:32:54;;;;;;;0.70;0.30;;;20.40;99.90;;;;;;4991468;28;20528;-81
2022/10/24 03:35:22;;;;;;;0.50;0.22;;;20.70;99.90;;;;;;4992033;28;20376;-81
2022/10/24 03:37:49;;;;;;;0.30;0.20;;;21.00;99.90;;;;;;4991608;28;20393;-81
2022/10/24 03:40:16;;;;;;;0.30;0.30;;;21.10;99.90;;;;;;4994262;28;20980;-81
2022/10/24 03:42:43;;;;;;;0.50;0.50;;;21.10;99.90;;;;;;4978226;28;20392;-81
2022/10/24 03:45:10;;;;;;;0.70;0.70;;;21.10;99.90;;;;;;4995394;28;20891;-81
2022/10/24 03:47:37;;;;;;;0.60;0.60;;;21.20;99.90;;;;;;4995459;28;20717;-80
2022/10/24 03:50:05;;;;;;;1.00;0.70;;;21.50;99.90;;;;;;4997639;28;20403;-81
2022/10/24 03:52:32;;;;;;;2.45;1.10;;;22.00;99.90;;;;;;4992843;28;20409;-81
2022/10/24 03:55:00;;;;;;;1.20;1.20;;;22.30;99.90;;;;;;4995017;28;20416;-81
2022/10/24 03:57:27;;;;;;;1.40;1.30;;;22.40;99.90;;;;;;4990682;28;20447;-81
2022/10/24 03:59:54;;;;;;;1.30;1.30;;;22.30;99.90;;;;;;4994135;28;20424;-80
2022/10/24 04:02:21;;;;;;;1.10;1.10;;;22.30;99.90;;;;;;4996680;28;20393;-82
2022/10/24 04:04:48;;;;;;;2.63;1.23;;;22.20;99.90;;;;;;4998374;28;20421;-82
2022/10/24 04:07:15;;;;;;;0.80;0.80;;;22.00;99.90;;;;;;5001624;28;20407;-80
2022/10/24 04:09:42;;;;;;;1.38;0.80;;;21.70;99.90;;;;;;4996332;28;20447;-81
2022/10/24 04:12:09;;;;;;;0.63;0.60;;;21.60;99.90;;;;;;5001439;28;20391;-79
2022/10/24 04:14:36;;;;;;;0.70;0.70;;;21.50;99.90;;;;;;5001173;28;20413;-83
2022/10/24 04:17:03;;;;;;;1.33;0.65;;;21.50;99.90;;;;;;5006773;28;20476;-81
2022/10/24 04:19:30;;;;;;;0.22;0.22;;;21.80;99.90;;;;;;5000692;28;20762;-83
2022/10/24 04:21:58;;;;;;;1.50;0.50;;;22.10;99.90;;;;;;4992586;28;20400;-83
2022/10/24 04:24:25;;;;;;;0.32;0.22;;;22.40;99.90;;;;;;5000835;28;20392;-82
2022/10/24 04:26:52;;;;;;;0.30;0.30;;;22.80;99.90;;;;;;4993003;28;20476;-83
2022/10/24 04:29:19;;;;;;;0.33;0.20;;;22.70;99.90;;;;;;4999478;28;20393;-83
2022/10/24 04:31:46;;;;;;;0.30;0.30;;;22.90;99.90;;;;;;4998458;28;20588;-82
2022/10/24 04:34:13;;;;;;;0.40;0.30;;;22.60;99.90;;;;;;4995014;28;20389;-83
2022/10/24 04:36:40;;;;;;;0.30;0.30;;;22.50;99.90;;;;;;4997767;28;20480;-82
2022/10/24 04:39:07;;;;;;;0.45;0.30;;;22.60;99.90;;;;;;4999351;28;20400;-83
2022/10/24 04:41:34;;;;;;;0.65;0.28;;;22.80;99.90;;;;;;4998152;28;20416;-86
2022/10/24 04:44:01;;;;;;;0.40;0.40;;;22.10;99.90;;;;;;5002819;28;20476;-81
2022/10/24 04:46:28;;;;;;;1.05;0.40;;;22.40;99.90;;;;;;5008150;28;20389;-82
2022/10/24 04:48:55;;;;;;;0.60;0.57;;;22.40;99.90;;;;;;4994730;28;20392;-82
2022/10/24 04:51:22;;;;;;;0.60;0.30;;;22.50;99.90;;;;;;5002600;28;20885;-82
2022/10/24 04:53:50;;;;;;;0.50;0.40;;;22.80;99.90;;;;;;4993796;28;20404;-83
2022/10/24 04:56:18;;;;;;;1.15;0.50;;;22.90;99.90;;;;;;4993287;28;20472;-83
2022/10/24 04:58:45;;;;;;;26.07;18.33;;;22.80;99.90;;;;;;4994709;28;20389;-83
2022/10/24 05:01:12;;;;;;;6.50;4.80;;;23.00;99.90;;;;;;5008305;28;20396;-81
2022/10/24 05:03:39;;;;;;;1.73;0.47;;;23.00;99.90;;;;;;4997684;28;20748;-82
2022/10/24 05:06:06;;;;;;;10.73;7.88;;;22.70;99.90;;;;;;5007136;28;20879;-82
2022/10/24 05:08:33;;;;;;;1.85;0.30;;;22.60;99.90;;;;;;5001912;28;20405;-83
2022/10/24 05:11:00;;;;;;;0.80;0.20;;;22.30;99.90;;;;;;4997766;28;20395;-84
2022/10/24 05:13:27;;;;;;;0.38;0.20;;;22.00;99.90;;;;;;4993088;28;20412;-82
2022/10/24 05:15:54;;;;;;;2.17;0.40;;;21.50;99.90;;;;;;4996538;28;20471;-83
2022/10/24 05:18:21;;;;;;;1.00;0.32;;;21.20;99.90;;;;;;4993671;28;20397;-84
2022/10/24 05:20:48;;;;;;;1.65;0.55;;;21.00;99.90;;;;;;4988144;28;20391;-81
2022/10/24 05:23:15;;;;;;;2.20;0.30;;;20.80;99.90;;;;;;4994499;28;20389;-87
2022/10/24 05:25:43;;;;;;;0.63;0.28;;;20.70;99.90;;;;;;4993839;28;20424;-85
2022/10/24 05:28:10;;;;;;;1.17;0.30;;;20.50;99.90;;;;;;4995636;28;20381;-82
2022/10/24 05:30:37;;;;;;;0.82;0.40;;;20.40;99.90;;;;;;5004437;28;20408;-83
2022/10/24 05:33:04;;;;;;;2.47;0.50;;;20.40;99.90;;;;;;4996305;28;20408;-83
2022/10/24 05:35:31;;;;;;;1.45;0.20;;;20.40;99.90;;;;;;4973648;28;20474;-85
2022/10/24 05:37:58;;;;;;;1.98;0.47;;;20.40;99.90;;;;;;4972463;28;20445;-79
2022/10/24 05:40:25;;;;;;;0.73;0.28;;;20.20;99.90;;;;;;4974273;28;20402;-83
2022/10/24 05:42:52;;;;;;;0.28;0.22;;;20.20;99.90;;;;;;4966916;28;20404;-81
2022/10/24 05:45:20;;;;;;;0.47;0.28;;;20.10;99.90;;;;;;4964858;28;20400;-81
2022/10/24 05:47:47;;;;;;;2.80;0.50;;;20.10;99.90;;;;;;4983061;28;20891;-81
2022/10/24 05:50:15;;;;;;;1.20;0.30;;;20.10;99.90;;;;;;4971634;28;20787;-81
2022/10/24 05:52:42;;;;;;;1.05;0.30;;;20.10;99.90;;;;;;4963806;28;20798;-81
2022/10/24 05:55:09;;;;;;;0.40;0.20;;;20.00;99.90;;;;;;4971233;28;20391;-81
2022/10/24 05:57:37;;;;;;;0.80;0.40;;;20.00;99.90;;;;;;4977294;28;20535;-85
2022/10/24 06:00:07;;;;;;;0.40;0.30;;;19.90;99.90;;;;;;4972393;28;20391;-83
2022/10/24 06:02:35;;;;;;;1.70;0.68;;;19.90;99.90;;;;;;4971739;28;20425;-82
2022/10/24 06:05:02;;;;;;;1.50;0.50;;;19.90;99.90;;;;;;4972021;28;20394;-81
2022/10/24 06:07:30;;;;;;;2.00;0.50;;;19.90;99.90;;;;;;4971508;28;20402;-82
2022/10/24 06:09:57;;;;;;;1.65;0.50;;;19.80;99.90;;;;;;4972990;28;20401;-82
2022/10/24 06:12:24;;;;;;;1.00;0.50;;;19.80;99.90;;;;;;4977405;28;20476;-82
2022/10/24 06:14:58;;;;;;;0.82;0.57;;;19.90;99.90;;;;;;4993431;28;20451;-81
2022/10/24 06:17:25;;;;;;;1.20;0.90;;;19.90;99.90;;;;;;4992774;28;20407;-81
2022/10/24 06:19:52;;;;;;;0.60;0.60;;;19.80;99.90;;;;;;4996458;28;20910;-80
2022/10/24 06:22:26;;;;;;;3.13;1.98;;;19.90;99.90;;;;;;5003325;28;20396;-83
2022/10/24 06:24:53;;;;;;;1.27;1.17;;;19.80;99.90;;;;;;5009633;28;20777;-80
2022/10/24 06:27:20;;;;;;;2.17;1.63;;;19.80;99.90;;;;;;5001278;28;20420;-83
2022/10/24 06:29:57;;;;;;;2.15;1.95;;;19.90;99.90;;;;;;5002612;28;20397;-82
2022/10/24 06:32:38;;;;;;;1.13;1.00;;;20.00;99.90;;;;;;5004706;28;20408;-80
2022/10/24 06:35:12;;;;;;;0.70;0.60;;;20.00;99.90;;;;;;5000160;28;20404;-84
2022/10/24 06:37:39;;;;;;;1.10;0.80;;;20.10;99.90;;;;;;4985286;28;20393;-84
2022/10/24 06:40:08;;;;;;;0.77;0.77;;;20.00;99.90;;;;;;4997769;28;20388;-84
2022/10/24 06:42:36;;;;;;;1.10;0.70;;;20.00;99.90;;;;;;5005818;28;20415;-85
2022/10/24 06:45:06;;;;;;;1.13;1.00;;;20.00;99.90;;;;;;4995625;28;20745;-85
2022/10/24 06:47:33;;;;;;;1.23;1.00;;;19.90;99.90;;;;;;4997894;28;20420;-84
2022/10/24 06:50:00;;;;;;;1.17;0.70;;;20.00;99.90;;;;;;5004566;28;20383;-83
2022/10/24 06:52:27;;;;;;;1.00;0.80;;;20.10;99.90;;;;;;5000990;28;20435;-84
2022/10/24 06:54:55;;;;;;;1.90;1.33;;;20.00;99.90;;;;;;4995301;28;20392;-84
2022/10/24 06:57:26;;;;;;;1.20;1.10;;;19.90;99.90;;;;;;5002209;28;20384;-84
2022/10/24 06:59:59;;;;;;;2.65;2.30;;;19.80;99.90;;;;;;5002477;28;20387;-84
2022/10/24 07:02:26;;;;;;;1.67;1.02;;;20.00;99.90;;;;;;5005151;28;20392;-82
2022/10/24 07:04:59;;;;;;;2.42;1.00;;;20.10;99.90;;;;;;5002210;28;20380;-89
2022/10/24 07:07:29;;;;;;;9.50;6.22;;;20.20;99.90;;;;;;5004329;28;20373;-83
2022/10/24 07:09:57;;;;;;;2.65;1.52;;;20.10;99.90;;;;;;5000284;28;20411;-88
2022/10/24 07:12:25;;;;;;;2.33;1.60;;;20.10;99.90;;;;;;4994680;28;20868;-84
2022/10/24 07:14:56;;;;;;;1.38;1.10;;;20.00;99.90;;;;;;5000484;28;20388;-84
2022/10/24 07:17:26;;;;;;;2.42;1.20;;;19.90;99.90;;;;;;5020243;28;20404;-84
2022/10/24 07:19:57;;;;;;;1.30;1.00;;;19.80;99.90;;;;;;4999087;28;20368;-86
2022/10/24 07:22:25;;;;;;;1.20;0.80;;;19.80;99.90;;;;;;4991572;28;20388;-85
2022/10/24 07:24:59;;;;;;;1.15;1.00;;;19.80;99.90;;;;;;4999757;28;20475;-84
2022/10/24 07:27:29;;;;;;;2.60;1.00;;;19.70;99.90;;;;;;5002174;28;20364;-84
2022/10/24 07:30:05;;;;;;;2.60;0.80;;;19.70;99.90;;;;;;5002826;28;20419;-83
2022/10/24 07:32:35;;;;;;;1.70;0.90;;;19.60;99.90;;;;;;5018614;28;20428;-87
2022/10/24 07:35:03;;;;;;;2.08;0.70;;;19.60;99.90;;;;;;5028960;28;20412;-83
2022/10/24 07:37:30;;;;;;;3.65;2.08;;;19.60;99.90;;;;;;5005309;28;20396;-82
2022/10/24 07:40:07;;;;;;;4.95;1.08;;;19.50;99.90;;;;;;5003965;28;20388;-86
2022/10/24 07:42:39;;;;;;;1.00;0.90;;;19.50;99.90;;;;;;5004277;28;20360;-85
2022/10/24 07:45:07;;;;;;;1.40;0.77;;;19.40;99.90;;;;;;5018685;28;20416;-82
2022/10/24 07:47:38;;;;;;;1.50;0.70;;;19.40;99.90;;;;;;5017245;28;20388;-82
2022/10/24 07:50:06;;;;;;;1.50;0.77;;;19.40;99.90;;;;;;5001645;28;20487;-82
2022/10/24 07:52:33;;;;;;;2.50;0.73;;;19.30;99.90;;;;;;5006181;28;20399;-82
2022/10/24 07:55:02;;;;;;;2.00;0.80;;;19.30;99.90;;;;;;5023939;28;20761;-82
2022/10/24 07:57:29;;;;;;;1.48;0.90;;;19.30;99.90;;;;;;5004312;28;20385;-81
2022/10/24 07:59:58;;;;;;;1.35;0.90;;;19.30;99.90;;;;;;5009858;28;20543;-82
2022/10/24 08:02:26;;;;;;;1.50;0.90;;;19.10;99.90;;;;;;5001159;28;20880;-81
2022/10/24 08:04:53;;;;;;;1.15;0.80;;;19.10;99.90;;;;;;5004585;28;20748;-82
2022/10/24 08:07:21;;;;;;;1.83;0.80;;;19.10;99.90;;;;;;5003033;28;20385;-82
2022/10/24 08:09:50;;;;;;;1.23;0.70;;;19.10;99.90;;;;;;5016383;28;20918;-82
2022/10/24 08:12:18;;;;;;;1.98;0.75;;;19.10;99.90;;;;;;5004640;28;20401;-85
2022/10/24 08:14:45;;;;;;;2.67;0.82;;;19.20;99.90;;;;;;5007924;28;20390;-83
2022/10/24 08:17:13;;;;;;;1.90;0.60;;;18.80;99.90;;;;;;5010380;28;20363;-83
2022/10/24 08:19:43;;;;;;;1.10;0.70;;;19.20;99.90;;;;;;5002771;28;20420;-83
2022/10/24 08:22:11;;;;;;;3.10;0.80;;;19.20;99.90;;;;;;5010352;28;20469;-84
2022/10/24 08:24:44;;;;;;;2.55;0.70;;;19.10;99.90;;;;;;5013866;28;20387;-83
2022/10/24 08:27:15;;;;;;;0.95;0.70;;;19.10;99.90;;;;;;5007862;28;20431;-83
2022/10/24 08:29:50;;;;;;;2.20;0.70;;;19.10;99.90;;;;;;5002483;28;20401;-82
2022/10/24 08:32:19;;;;;;;1.65;0.80;;;19.10;99.90;;;;;;5008913;28;20435;-83
2022/10/24 08:34:49;;;;;;;1.65;0.82;;;19.10;99.90;;;;;;5008716;28;20416;-84
2022/10/24 08:37:17;;;;;;;1.98;0.90;;;19.10;99.90;;;;;;4992422;28;20433;-82
2022/10/24 08:39:44;;;;;;;2.00;0.90;;;19.00;99.90;;;;;;5006680;28;20383;-84
2022/10/24 08:42:19;;;;;;;1.60;0.73;;;19.00;99.90;;;;;;5019111;28;20371;-82
2022/10/24 08:44:49;;;;;;;1.70;0.80;;;18.60;99.90;;;;;;5003786;28;20404;-84
2022/10/24 08:47:51;;;;;;;2.33;1.00;;;19.00;99.90;;;;;;5030155;28;20602;-82
2022/10/24 08:50:32;;;;;;;2.10;1.00;;;19.00;99.90;;;;;;5005253;28;20387;-84
2022/10/24 08:53:05;;;;;;;17.80;14.45;;;19.00;99.90;;;;;;5008817;28;20416;-82
2022/10/24 08:55:52;;;;;;;123.72;107.63;;;19.00;99.90;;;;;;4995607;28;20475;-81
2022/10/24 08:58:23;;;;;;;38.33;33.65;;;18.90;99.90;;;;;;5000952;28;20462;-84
2022/10/24 09:00:54;;;;;;;151.77;132.27;;;18.90;99.90;;;;;;4999176;28;20820;-83
2022/10/24 09:03:42;;;;;;;75.45;66.82;;;18.90;99.90;;;;;;5011171;28;20395;-83
2022/10/24 09:06:24;;;;;;;9.45;7.82;;;18.90;99.90;;;;;;4994325;28;20393;-84
2022/10/24 09:08:57;;;;;;;15.38;13.80;;;18.90;99.90;;;;;;4985213;28;20396;-84
2022/10/24 09:11:49;;;;;;;10.67;9.60;;;18.90;99.90;;;;;;4989917;28;20468;-84
2022/10/24 09:14:20;;;;;;;9.80;7.15;;;18.80;99.90;;;;;;4988241;28;20439;-83
2022/10/24 09:17:09;;;;;;;6.30;4.10;;;18.80;99.90;;;;;;4976003;28;21109;-81
2022/10/24 09:19:38;;;;;;;4.43;3.13;;;18.80;99.90;;;;;;4997665;28;20533;-81
2022/10/24 09:22:11;;;;;;;5.63;4.20;;;18.80;99.90;;;;;;5000321;28;20392;-83
2022/10/24 09:24:51;;;;;;;5.43;4.70;;;18.80;99.90;;;;;;4992369;28;20715;-83
2022/10/24 09:27:22;;;;;;;5.15;4.15;;;18.80;99.90;;;;;;5000554;28;20393;-82
2022/10/24 09:29:50;;;;;;;7.37;4.03;;;18.80;99.90;;;;;;4998157;28;20544;-82
2022/10/24 09:32:23;;;;;;;4.35;3.50;;;18.70;99.90;;;;;;4995230;28;20405;-83
2022/10/24 09:34:50;;;;;;;4.53;3.47;;;18.70;99.90;;;;;;5004558;28;20381;-81
2022/10/24 09:37:44;;;;;;;5.93;3.72;;;18.70;99.90;;;;;;4998761;28;20399;-82
2022/10/24 09:40:37;;;;;;;4.45;3.80;;;18.70;99.90;;;;;;4994289;28;20463;-83
2022/10/24 09:43:21;;;;;;;6.28;4.20;;;18.70;99.90;;;;;;4984239;28;20544;-84
2022/10/24 09:46:07;;;;;;;4.30;3.80;;;18.70;99.90;;;;;;4994262;28;20431;-85
2022/10/24 09:48:41;;;;;;;4.27;3.47;;;18.70;99.90;;;;;;4995284;28;20865;-83
2022/10/24 09:51:16;;;;;;;5.07;3.25;;;18.70;99.90;;;;;;4995288;28;20424;-82
2022/10/24 09:54:02;;;;;;;4.65;3.33;;;18.70;99.90;;;;;;4996968;28;20399;-83
2022/10/24 09:56:41;;;;;;;4.15;2.92;;;18.70;99.90;;;;;;4992962;28;20776;-83
2022/10/24 09:59:35;;;;;;;6.45;3.33;;;18.70;99.90;;;;;;5000993;28;20387;-81
2022/10/24 10:02:17;;;;;;;4.88;3.22;;;18.70;99.90;;;;;;4989755;28;20804;-82
2022/10/24 10:04:52;;;;;;;4.40;3.80;;;18.70;99.90;;;;;;5002245;28;20445;-84
2022/10/24 10:07:26;;;;;;;5.35;4.20;;;18.70;99.90;;;;;;5006156;28;20377;-84
2022/10/24 10:10:14;;;;;;;5.15;4.00;;;18.70;99.90;;;;;;5005137;28;20395;-83
2022/10/24 10:12:44;;;;;;;5.40;3.63;;;18.70;99.90;;;;;;5013337;28;20422;-83
2022/10/24 10:15:25;;;;;;;5.05;3.60;;;18.80;99.90;;;;;;4991427;28;20390;-83
2022/10/24 10:17:59;;;;;;;6.13;4.50;;;18.80;99.90;;;;;;5004535;28;20408;-82
2022/10/24 10:20:40;;;;;;;7.75;4.57;;;18.80;99.90;;;;;;4993819;28;20376;-84
2022/10/24 10:23:25;;;;;;;6.72;4.70;;;18.80;99.90;;;;;;4989942;28;20381;-85
2022/10/24 10:26:18;;;;;;;7.25;4.72;;;18.80;99.90;;;;;;4999800;28;20724;-84
2022/10/24 10:28:57;;;;;;;7.88;5.03;;;18.80;99.90;;;;;;4991994;28;20420;-83
2022/10/24 10:31:48;;;;;;;6.15;4.85;;;18.80;99.90;;;;;;4993945;28;20404;-83
2022/10/24 10:34:34;;;;;;;6.73;5.50;;;18.90;99.90;;;;;;4995370;28;20809;-82
2022/10/24 10:37:24;;;;;;;5.43;4.93;;;18.80;99.90;;;;;;4997913;28;20392;-83
2022/10/24 10:40:09;;;;;;;6.20;5.43;;;18.80;99.90;;;;;;4993667;28;20488;-87
2022/10/24 10:42:43;;;;;;;5.50;4.47;;;18.80;99.90;;;;;;4995348;28;20482;-84
2022/10/24 10:45:35;;;;;;;7.17;4.77;;;18.80;99.90;;;;;;4993344;28;20454;-85
2022/10/24 10:48:28;;;;;;;7.43;4.50;;;18.80;99.90;;;;;;4981083;28;20956;-86
2022/10/24 10:50:55;;;;;;;8.98;4.47;;;18.80;99.90;;;;;;4996476;28;20419;-85
2022/10/24 10:53:49;;;;;;;7.50;4.30;;;18.80;99.90;;;;;;4993798;28;20416;-80
2022/10/24 10:56:59;;;;;;;7.40;4.57;;;18.90;99.90;;;;;;4982399;28;20415;-83
2022/10/24 10:59:58;;;;;;;7.55;4.50;;;18.90;99.90;;;;;;4971412;28;20395;-82
2022/10/24 11:02:37;;;;;;;9.23;5.33;;;18.90;99.90;;;;;;4973362;28;20494;-83
2022/10/24 11:05:43;;;;;;;10.93;6.60;;;18.90;99.90;;;;;;4976592;28;20411;-84
2022/10/24 11:08:26;;;;;;;11.35;7.47;;;18.90;99.90;;;;;;4956181;29;20625;-82
2022/10/24 11:11:21;;;;;;;9.38;6.30;;;18.90;99.90;;;;;;4955652;29;20418;-82
2022/10/24 11:14:13;;;;;;;9.20;6.13;;;18.90;99.90;;;;;;4861044;29;20518;-83
2022/10/24 11:16:41;;;;;;;7.38;5.40;;;18.90;99.90;;;;;;4861655;29;20465;-81
2022/10/24 11:19:39;;;;;;;6.22;4.97;;;18.90;99.90;;;;;;4860724;29;20404;-82
2022/10/24 11:22:16;;;;;;;7.75;4.85;;;18.90;99.90;;;;;;4860223;29;20491;-82
2022/10/24 11:25:01;;;;;;;6.40;4.35;;;18.90;99.90;;;;;;4860819;29;20396;-82
2022/10/24 11:27:39;;;;;;;7.78;4.50;;;18.90;99.90;;;;;;4860179;29;20487;-81
2022/10/24 11:30:15;;;;;;;8.35;5.20;;;18.90;99.90;;;;;;4859180;29;20416;-81
2022/10/24 11:32:48;;;;;;;6.38;4.80;;;18.90;99.90;;;;;;4859324;29;20420;-82
2022/10/24 11:35:24;;;;;;;10.63;5.07;;;18.90;99.90;;;;;;4859621;29;20406;-83
2022/10/24 11:38:01;;;;;;;9.52;4.85;;;18.90;99.90;;;;;;4878176;29;20461;-81
2022/10/24 11:40:30;;;;;;;8.27;4.40;;;18.90;99.90;;;;;;4879958;29;20391;-83
2022/10/24 11:42:59;;;;;;;9.15;4.82;;;18.90;99.90;;;;;;4881112;29;20393;-83
2022/10/24 11:45:53;;;;;;;7.07;4.80;;;18.90;99.90;;;;;;4898742;29;20397;-83
2022/10/24 11:48:40;;;;;;;11.00;6.00;;;18.80;99.90;;;;;;4871153;29;20407;-83
2022/10/24 11:51:21;;;;;;;6.97;4.90;;;18.80;99.90;;;;;;4938112;28;20410;-83
2022/10/24 11:53:59;;;;;;;10.38;5.40;;;18.80;99.90;;;;;;4971293;28;21099;-83
2022/10/24 11:57:02;;;;;;;11.98;5.40;;;18.70;99.90;;;;;;4962956;28;20390;-84
2022/10/24 11:59:29;;;;;;;8.55;5.10;;;18.70;99.90;;;;;;4933238;29;20399;-83
2022/10/24 12:02:22;;;;;;;10.02;4.68;;;18.70;99.90;;;;;;4932822;29;20481;-83
2022/10/24 12:05:33;;;;;;;6.63;4.70;;;18.60;99.90;;;;;;4875333;29;21062;-83
2022/10/24 12:08:41;;;;;;;10.38;4.95;;;18.50;99.90;;;;;;4876522;29;20518;-82
2022/10/24 12:11:35;;;;;;;8.35;4.38;;;18.40;99.90;;;;;;4873403;29;20938;-83
2022/10/24 12:14:26;;;;;;;9.13;4.10;;;18.30;99.90;;;;;;4875016;29;20414;-83
2022/10/24 12:17:24;;;;;;;10.23;4.35;;;18.30;99.90;;;;;;4868092;29;20435;-83
2022/10/24 12:19:51;;;;;;;9.00;4.00;;;18.20;99.90;;;;;;4874548;29;20427;-83
2022/10/24 12:22:25;;;;;;;10.07;4.13;;;18.10;99.90;;;;;;4869852;29;20425;-83
2022/10/24 12:25:35;;;;;;;10.10;4.10;;;18.00;99.90;;;;;;4881253;29;20408;-83
2022/10/24 12:28:21;;;;;;;11.48;4.35;;;18.00;99.90;;;;;;4890588;29;20966;-83
2022/10/24 12:31:28;;;;;;;9.23;4.30;;;17.90;99.90;;;;;;4891846;29;20958;-83
2022/10/24 12:34:16;;;;;;;9.68;4.35;;;17.90;99.90;;;;;;4892107;29;20803;-84
2022/10/24 12:37:11;;;;;;;12.30;4.83;;;17.90;99.90;;;;;;4931656;29;20401;-82
2022/10/24 12:39:40;;;;;;;9.10;5.10;;;17.90;99.90;;;;;;4927687;29;20433;-83
2022/10/24 12:42:22;;;;;;;11.32;5.72;;;17.80;99.90;;;;;;4974330;28;20412;-83
2022/10/24 12:45:02;;;;;;;15.30;9.47;;;17.80;99.90;;;;;;5008245;28;20480;-83
2022/10/24 12:47:33;;;;;;;14.63;8.13;;;17.70;99.90;;;;;;4994163;28;20397;-83
2022/10/24 12:50:20;;;;;;;16.67;10.10;;;17.60;99.90;;;;;;5001197;28;20914;-83
2022/10/24 12:52:47;;;;;;;13.40;9.60;;;17.60;99.90;;;;;;4956318;28;20783;-83
2022/10/24 12:55:38;;;;;;;19.08;10.73;;;17.60;99.90;;;;;;4978415;28;20434;-83
2022/10/24 12:58:33;;;;;;;14.93;8.73;;;17.50;99.90;;;;;;4972910;28;20414;-83
2022/10/24 13:01:11;;;;;;;15.98;9.95;;;17.50;99.90;;;;;;4971059;28;20374;-83
2022/10/24 13:03:56;;;;;;;21.47;11.23;;;17.40;99.90;;;;;;4971120;28;20465;-83
2022/10/24 13:06:57;;;;;;;22.20;15.57;;;17.40;99.90;;;;;;4987131;28;20843;-82
2022/10/24 13:09:30;;;;;;;18.85;14.45;;;17.30;99.90;;;;;;4969469;28;20425;-83
2022/10/24 13:12:31;;;;;;;20.97;14.00;;;17.30;99.90;;;;;;4970708;28;20437;-83
2022/10/24 13:15:25;;;;;;;23.08;16.08;;;17.30;99.90;;;;;;4977632;28;20991;-83
2022/10/24 13:18:18;;;;;;;24.30;17.35;;;17.20;99.90;;;;;;4970484;28;20724;-83
2022/10/24 13:20:49;;;;;;;29.33;20.03;;;17.20;99.90;;;;;;4971158;28;20944;-83
2022/10/24 13:23:20;;;;;;;30.40;22.02;;;17.20;99.90;;;;;;4971054;28;20408;-83